createdAt,value
2017-11-27T00:01:38.548Z,3.60
2017-11-27T00:04:04.801Z,3.70
2017-11-27T00:06:31.072Z,3.70
2017-11-27T00:08:57.349Z,3.50
2017-11-27T00:11:23.647Z,3.60
2017-11-27T00:13:50.684Z,3.50
2017-11-27T00:16:17.734Z,3.50
2017-11-27T00:18:44.754Z,3.50
2017-11-27T00:21:11.025Z,3.50
2017-11-27T00:23:38.049Z,3.40
2017-11-27T00:26:05.163Z,3.40
2017-11-27T00:28:31.430Z,3.40
2017-11-27T00:30:57.729Z,3.40
2017-11-27T00:33:24.006Z,3.50
2017-11-27T00:35:51.012Z,3.60
2017-11-27T00:38:17.291Z,3.60
2017-11-27T00:40:43.579Z,3.70
2017-11-27T00:43:09.831Z,3.70
2017-11-27T00:45:36.841Z,3.80
2017-11-27T00:48:03.105Z,3.80
2017-11-27T00:50:30.136Z,3.70
2017-11-27T00:52:56.406Z,3.70
2017-11-27T00:55:22.706Z,3.60
2017-11-27T00:57:48.983Z,3.60
2017-11-27T01:00:15.266Z,3.60
2017-11-27T01:02:41.576Z,3.60
2017-11-27T01:05:07.852Z,3.60
2017-11-27T01:07:34.090Z,3.50
2017-11-27T01:10:00.351Z,3.50
2017-11-27T01:12:26.623Z,3.40
2017-11-27T01:14:53.643Z,3.30
2017-11-27T01:17:19.884Z,3.30
2017-11-27T01:19:46.159Z,3.30
2017-11-27T01:22:12.444Z,3.30
2017-11-27T01:24:38.717Z,3.30
2017-11-27T01:27:04.987Z,3.30
2017-11-27T01:29:31.264Z,3.20
2017-11-27T01:31:57.558Z,3.20
2017-11-27T01:34:23.832Z,3.10
2017-11-27T01:36:50.151Z,3.20
2017-11-27T01:39:16.435Z,3.10
2017-11-27T01:41:42.766Z,3.10
2017-11-27T01:44:09.061Z,3.00
2017-11-27T01:46:35.337Z,3.00
2017-11-27T01:49:01.638Z,3.00
2017-11-27T01:51:27.967Z,2.90
2017-11-27T01:53:54.230Z,2.90
2017-11-27T01:56:20.541Z,2.90
2017-11-27T01:58:46.823Z,3.00
2017-11-27T02:01:13.149Z,2.90
2017-11-27T02:03:39.446Z,2.90
2017-11-27T02:06:05.713Z,2.90
2017-11-27T02:08:31.980Z,2.90
2017-11-27T02:10:58.284Z,2.90
2017-11-27T02:13:24.566Z,2.90
2017-11-27T02:15:50.865Z,2.80
2017-11-27T02:18:17.131Z,2.90
2017-11-27T02:20:44.182Z,2.80
2017-11-27T02:23:11.187Z,2.80
2017-11-27T02:25:37.478Z,2.80
2017-11-27T02:28:03.749Z,2.70
2017-11-27T02:30:30.012Z,2.70
2017-11-27T02:32:56.320Z,2.70
2017-11-27T02:35:22.587Z,2.70
2017-11-27T02:37:49.577Z,2.70
2017-11-27T02:40:15.888Z,2.70
2017-11-27T02:42:42.207Z,2.70
2017-11-27T02:45:08.519Z,2.60
2017-11-27T02:47:35.513Z,2.60
2017-11-27T02:50:01.795Z,2.60
2017-11-27T02:52:28.807Z,2.60
2017-11-27T02:54:55.130Z,2.60
2017-11-27T02:57:21.390Z,2.60
2017-11-27T02:59:48.446Z,2.60
2017-11-27T03:02:15.436Z,2.60
2017-11-27T03:04:41.722Z,2.60
2017-11-27T03:07:08.748Z,2.60
2017-11-27T03:09:35.041Z,2.60
2017-11-27T03:12:01.302Z,2.60
2017-11-27T03:14:27.603Z,2.70
2017-11-27T03:16:53.894Z,2.60
2017-11-27T03:19:20.886Z,2.70
2017-11-27T03:21:47.137Z,2.70
2017-11-27T03:24:13.432Z,2.80
2017-11-27T03:26:39.691Z,2.80
2017-11-27T03:29:05.982Z,2.80
2017-11-27T03:31:32.267Z,2.90
2017-11-27T03:33:58.570Z,2.90
2017-11-27T03:36:24.860Z,2.90
2017-11-27T03:38:51.142Z,3.00
2017-11-27T03:41:17.431Z,3.10
2017-11-27T03:43:43.759Z,3.10
2017-11-27T03:46:10.792Z,3.10
2017-11-27T03:48:37.067Z,3.10
2017-11-27T03:51:03.310Z,3.10
2017-11-27T03:53:29.594Z,3.10
2017-11-27T03:55:55.851Z,3.10
2017-11-27T03:58:22.150Z,3.10
2017-11-27T04:00:48.462Z,3.10
2017-11-27T04:03:15.526Z,3.20
2017-11-27T04:05:41.830Z,3.10
2017-11-27T04:08:08.839Z,3.20
2017-11-27T04:10:35.176Z,3.20
2017-11-27T04:13:01.453Z,3.30
2017-11-27T04:15:27.745Z,3.30
2017-11-27T04:17:54.057Z,3.40
2017-11-27T04:20:20.381Z,3.40
2017-11-27T04:22:46.645Z,3.50
2017-11-27T04:25:12.932Z,3.50
2017-11-27T04:27:39.201Z,3.50
2017-11-27T04:30:05.506Z,3.60
2017-11-27T04:32:32.599Z,3.70
2017-11-27T04:34:59.646Z,3.70
2017-11-27T04:37:26.696Z,3.70
2017-11-27T04:39:53.737Z,3.80
2017-11-27T04:42:20.790Z,3.90
2017-11-27T04:44:47.810Z,3.90
2017-11-27T04:47:14.094Z,3.90
2017-11-27T04:49:40.393Z,3.90
2017-11-27T04:52:07.460Z,4.00
2017-11-27T04:54:33.768Z,4.00
2017-11-27T04:57:00.830Z,4.00
2017-11-27T04:59:27.152Z,4.00
2017-11-27T05:01:54.180Z,4.10
2017-11-27T05:04:20.434Z,4.10
2017-11-27T05:06:47.455Z,4.20
2017-11-27T05:09:13.749Z,4.10
2017-11-27T05:11:40.043Z,4.20
2017-11-27T05:14:07.061Z,4.10
2017-11-27T05:16:33.330Z,4.10
2017-11-27T05:18:59.596Z,4.20
2017-11-27T05:21:25.901Z,4.20
2017-11-27T05:23:52.192Z,4.20
2017-11-27T05:26:18.513Z,4.20
2017-11-27T05:28:44.832Z,4.20
2017-11-27T05:31:11.069Z,4.20
2017-11-27T05:33:37.365Z,4.30
2017-11-27T05:36:03.622Z,4.20
2017-11-27T05:38:29.897Z,4.20
2017-11-27T05:40:56.497Z,4.20
2017-11-27T05:43:22.810Z,4.20
2017-11-27T05:45:49.088Z,4.20
2017-11-27T05:48:15.405Z,4.20
2017-11-27T05:50:42.407Z,4.20
2017-11-27T05:53:08.664Z,4.20
2017-11-27T05:55:34.916Z,4.20
2017-11-27T05:58:02.005Z,4.20
2017-11-27T06:00:28.277Z,4.20
2017-11-27T06:02:55.323Z,4.10
2017-11-27T06:05:22.329Z,4.10
2017-11-27T06:07:48.725Z,4.10
2017-11-27T06:10:14.990Z,4.10
2017-11-27T06:12:41.253Z,4.10
2017-11-27T06:15:07.529Z,4.20
2017-11-27T06:17:33.819Z,4.20
2017-11-27T06:20:00.065Z,4.20
2017-11-27T06:22:26.356Z,4.20
2017-11-27T06:24:53.370Z,4.20
2017-11-27T06:27:19.627Z,4.20
2017-11-27T06:29:45.911Z,4.30
2017-11-27T06:32:12.213Z,4.20
2017-11-27T06:34:38.512Z,4.30
2017-11-27T06:37:04.844Z,4.30
2017-11-27T06:39:31.095Z,4.30
2017-11-27T06:41:57.410Z,4.30
2017-11-27T06:44:23.695Z,4.30
2017-11-27T06:46:49.963Z,4.40
2017-11-27T06:49:16.196Z,4.40
2017-11-27T06:51:42.591Z,4.40
2017-11-27T06:54:08.851Z,4.40
2017-11-27T06:56:35.169Z,4.50
2017-11-27T06:59:01.448Z,4.40
2017-11-27T07:01:28.475Z,4.40
2017-11-27T07:03:54.798Z,4.30
2017-11-27T07:06:21.087Z,4.40
2017-11-27T07:08:47.387Z,4.40
2017-11-27T07:11:14.398Z,4.40
2017-11-27T07:13:40.667Z,4.40
2017-11-27T07:16:07.678Z,4.50
2017-11-27T07:18:33.984Z,4.50
2017-11-27T07:21:00.291Z,4.50
2017-11-27T07:23:26.546Z,4.50
2017-11-27T07:25:52.813Z,4.50
2017-11-27T07:28:19.054Z,4.60
2017-11-27T07:30:46.094Z,4.60
2017-11-27T07:33:13.156Z,4.60
2017-11-27T07:35:40.181Z,4.60
2017-11-27T07:38:12.599Z,4.60
2017-11-27T07:40:38.908Z,4.70
2017-11-27T07:43:05.886Z,4.60
2017-11-27T07:45:32.163Z,4.60
2017-11-27T07:47:58.421Z,4.60
2017-11-27T07:50:24.680Z,4.60
2017-11-27T07:52:50.975Z,4.70
2017-11-27T07:55:17.318Z,4.70
2017-11-27T07:57:43.648Z,4.80
2017-11-27T08:00:09.981Z,4.80
2017-11-27T08:02:36.314Z,4.80
2017-11-27T08:05:03.310Z,4.90
2017-11-27T08:07:29.673Z,4.90
2017-11-27T08:09:55.954Z,4.90
2017-11-27T08:12:22.289Z,5.00
2017-11-27T08:14:48.611Z,5.10
2017-11-27T08:17:14.900Z,5.10
2017-11-27T08:19:41.168Z,5.10
2017-11-27T08:22:07.561Z,5.10
2017-11-27T08:24:34.030Z,5.10
2017-11-27T08:27:01.113Z,5.10
2017-11-27T08:29:29.158Z,5.00
2017-11-27T08:31:55.542Z,5.00
2017-11-27T08:34:21.916Z,5.10
2017-11-27T08:36:48.237Z,5.20
2017-11-27T08:39:14.646Z,5.20
2017-11-27T08:41:40.964Z,5.20
2017-11-27T08:44:07.354Z,5.20
2017-11-27T08:46:33.718Z,5.20
2017-11-27T08:49:00.031Z,5.20
2017-11-27T08:51:26.333Z,5.20
2017-11-27T08:53:53.025Z,5.30
2017-11-27T08:56:19.443Z,5.30
2017-11-27T08:58:46.075Z,5.30
2017-11-27T09:01:12.426Z,5.30
2017-11-27T09:03:39.535Z,5.40
2017-11-27T09:06:06.950Z,5.40
2017-11-27T09:08:38.090Z,5.50
2017-11-27T09:11:04.538Z,5.50
2017-11-27T09:13:30.850Z,5.40
2017-11-27T09:15:57.284Z,5.50
2017-11-27T09:18:23.602Z,5.60
2017-11-27T09:20:50.414Z,5.60
2017-11-27T09:23:17.505Z,5.50
2017-11-27T09:25:43.883Z,5.50
2017-11-27T09:28:10.218Z,5.60
2017-11-27T09:30:36.577Z,5.60
2017-11-27T09:33:02.957Z,5.50
2017-11-27T09:35:30.055Z,5.50
2017-11-27T09:37:56.607Z,5.50
2017-11-27T09:40:23.036Z,5.50
2017-11-27T09:42:49.381Z,5.40
2017-11-27T09:45:16.076Z,5.30
2017-11-27T09:47:42.409Z,5.40
2017-11-27T09:50:08.796Z,5.40
2017-11-27T09:52:38.612Z,5.30
2017-11-27T09:55:05.785Z,5.10
2017-11-27T09:57:32.202Z,5.10
2017-11-27T09:59:58.557Z,5.00
2017-11-27T10:02:26.270Z,5.00
2017-11-27T10:04:58.180Z,5.00
2017-11-27T10:07:24.521Z,4.90
2017-11-27T10:09:50.913Z,4.80
2017-11-27T10:12:19.309Z,4.80
2017-11-27T10:14:56.988Z,4.70
2017-11-27T10:17:23.598Z,4.70
2017-11-27T10:19:50.010Z,4.60
2017-11-27T10:22:16.372Z,4.60
2017-11-27T10:24:46.754Z,4.60
2017-11-27T10:27:13.293Z,4.60
2017-11-27T10:29:39.634Z,4.60
2017-11-27T10:32:06.032Z,4.50
2017-11-27T10:34:33.974Z,4.60
2017-11-27T10:37:00.876Z,4.60
2017-11-27T10:39:27.957Z,4.50
2017-11-27T10:41:56.495Z,4.50
2017-11-27T10:44:23.226Z,4.50
2017-11-27T10:46:49.587Z,4.50
2017-11-27T10:49:16.008Z,4.50
2017-11-27T10:51:43.178Z,4.50
2017-11-27T10:54:09.534Z,4.50
2017-11-27T10:56:35.833Z,4.40
2017-11-27T10:59:02.140Z,4.40
2017-11-27T11:01:28.440Z,4.40
2017-11-27T11:03:54.721Z,4.40
2017-11-27T11:06:21.060Z,4.40
2017-11-27T11:08:47.291Z,4.40
2017-11-27T11:11:14.366Z,4.40
2017-11-27T11:13:40.829Z,4.30
2017-11-27T11:16:07.108Z,4.40
2017-11-27T11:18:33.383Z,4.40
2017-11-27T11:20:59.742Z,4.40
2017-11-27T11:23:26.008Z,4.40
2017-11-27T11:25:52.341Z,4.30
2017-11-27T11:28:18.695Z,4.30
2017-11-27T11:30:45.068Z,4.30
2017-11-27T11:33:11.385Z,4.30
2017-11-27T11:35:37.699Z,4.20
2017-11-27T11:38:04.688Z,4.10
2017-11-27T11:40:31.007Z,4.10
2017-11-27T11:42:57.296Z,4.10
2017-11-27T11:45:23.728Z,4.10
2017-11-27T11:47:49.990Z,4.00
2017-11-27T11:50:16.283Z,4.00
2017-11-27T11:52:42.575Z,4.00
2017-11-27T11:55:08.904Z,3.90
2017-11-27T11:57:35.238Z,3.90
2017-11-27T12:00:01.504Z,3.90
2017-11-27T12:02:27.826Z,3.90
2017-11-27T12:04:54.273Z,3.90
2017-11-27T12:07:20.554Z,3.90
2017-11-27T12:09:46.827Z,3.90
2017-11-27T12:12:13.944Z,3.90
2017-11-27T12:14:40.242Z,3.90
2017-11-27T12:17:06.552Z,3.90
2017-11-27T12:19:32.917Z,3.90
2017-11-27T12:21:59.275Z,3.90
2017-11-27T12:24:26.322Z,3.90
2017-11-27T12:26:53.431Z,3.90
2017-11-27T12:29:19.710Z,3.90
2017-11-27T12:31:46.352Z,3.90
2017-11-27T12:34:12.637Z,3.90
2017-11-27T12:36:39.474Z,3.90
2017-11-27T12:39:06.526Z,3.90
2017-11-27T12:41:32.940Z,4.00
2017-11-27T12:43:59.263Z,3.90
2017-11-27T12:46:25.574Z,3.90
2017-11-27T12:48:52.967Z,4.00
2017-11-27T12:51:19.272Z,4.00
2017-11-27T12:53:45.626Z,4.00
2017-11-27T12:56:12.648Z,3.90
2017-11-27T12:58:38.962Z,3.90
2017-11-27T13:01:05.308Z,4.00
2017-11-27T13:03:31.576Z,3.90
2017-11-27T13:05:58.051Z,4.00
2017-11-27T13:08:24.333Z,3.90
2017-11-27T13:10:50.671Z,4.00
2017-11-27T13:13:16.993Z,4.00
2017-11-27T13:15:43.286Z,3.90
2017-11-27T13:18:09.782Z,4.00
2017-11-27T13:20:36.104Z,4.00
2017-11-27T13:23:02.429Z,4.00
2017-11-27T13:25:28.723Z,4.00
2017-11-27T13:27:56.062Z,4.00
2017-11-27T13:30:22.470Z,4.00
2017-11-27T13:32:48.789Z,4.00
2017-11-27T13:35:15.781Z,4.00
2017-11-27T13:37:42.069Z,4.00
2017-11-27T13:40:08.364Z,4.00
2017-11-27T13:42:34.612Z,4.00
2017-11-27T13:45:00.897Z,3.90
2017-11-27T13:47:27.201Z,4.00
2017-11-27T13:49:53.564Z,4.00
2017-11-27T13:52:19.825Z,4.00
2017-11-27T13:54:46.119Z,4.00
2017-11-27T13:57:12.371Z,4.10
2017-11-27T13:59:38.615Z,4.10
2017-11-27T14:02:05.900Z,4.10
2017-11-27T14:04:32.130Z,4.10
2017-11-27T14:06:58.368Z,4.10
2017-11-27T14:09:24.608Z,4.10
2017-11-27T14:11:50.894Z,4.10
2017-11-27T14:14:17.155Z,4.10
2017-11-27T14:16:43.613Z,4.10
2017-11-27T14:19:10.640Z,4.10
2017-11-27T14:21:36.916Z,4.10
2017-11-27T14:24:03.944Z,4.10
2017-11-27T14:26:30.227Z,4.10
2017-11-27T14:28:57.245Z,4.10
2017-11-27T14:31:23.498Z,4.10
2017-11-27T14:33:49.802Z,4.10
2017-11-27T14:36:16.051Z,4.10
2017-11-27T14:38:42.519Z,4.10
2017-11-27T14:41:08.803Z,4.10
2017-11-27T14:43:35.866Z,4.10
2017-11-27T14:46:02.296Z,4.10
2017-11-27T14:48:28.647Z,4.10
2017-11-27T14:50:55.717Z,4.10
2017-11-27T14:53:22.067Z,4.10
2017-11-27T14:55:48.396Z,4.10
2017-11-27T14:58:15.451Z,4.10
2017-11-27T15:00:41.760Z,4.10
2017-11-27T15:03:08.117Z,4.10
2017-11-27T15:05:34.494Z,4.20
2017-11-27T15:08:01.580Z,4.20
2017-11-27T15:10:27.932Z,4.20
2017-11-27T15:12:54.265Z,4.30
2017-11-27T15:15:20.583Z,4.20
2017-11-27T15:17:46.926Z,4.30
2017-11-27T15:20:13.237Z,4.30
2017-11-27T15:22:39.553Z,4.30
2017-11-27T15:25:05.868Z,4.30
2017-11-27T15:27:32.973Z,4.40
2017-11-27T15:29:59.340Z,4.40
2017-11-27T15:32:25.688Z,4.40
2017-11-27T15:34:51.998Z,4.40
2017-11-27T15:37:18.393Z,4.40
2017-11-27T15:39:44.717Z,4.40
2017-11-27T15:42:11.060Z,4.50
2017-11-27T15:44:37.412Z,4.50
2017-11-27T15:47:03.781Z,4.50
2017-11-27T15:49:30.088Z,4.50
2017-11-27T15:51:56.421Z,4.50
2017-11-27T15:54:22.763Z,4.50
2017-11-27T15:56:49.117Z,4.60
2017-11-27T15:59:15.507Z,4.60
2017-11-27T16:01:41.874Z,4.50
2017-11-27T16:04:08.938Z,4.60
2017-11-27T16:06:36.005Z,4.60
2017-11-27T16:09:02.457Z,4.60
2017-11-27T16:11:28.805Z,4.60
2017-11-27T16:13:55.114Z,4.60
2017-11-27T16:16:21.476Z,4.60
2017-11-27T16:18:47.815Z,4.60
2017-11-27T16:21:14.885Z,4.60
2017-11-27T16:23:41.934Z,4.60
2017-11-27T16:26:09.081Z,4.60
2017-11-27T16:28:35.375Z,4.60
2017-11-27T16:31:01.710Z,4.60
2017-11-27T16:33:28.051Z,4.70
2017-11-27T16:35:54.395Z,4.70
2017-11-27T16:38:20.737Z,4.70
2017-11-27T16:40:47.874Z,4.70
2017-11-27T16:43:14.198Z,4.70
2017-11-27T16:45:40.537Z,4.70
2017-11-27T16:48:06.870Z,4.70
2017-11-27T16:50:33.226Z,4.80
2017-11-27T16:52:59.645Z,4.80
2017-11-27T16:55:26.021Z,4.80
2017-11-27T16:57:52.387Z,4.80
2017-11-27T17:00:19.509Z,4.90
2017-11-27T17:02:45.840Z,4.80
2017-11-27T17:05:12.111Z,4.90
2017-11-27T17:07:38.422Z,4.90
2017-11-27T17:10:04.785Z,4.90
2017-11-27T17:12:31.056Z,4.90
2017-11-27T17:14:57.385Z,4.90
2017-11-27T17:17:23.655Z,4.90
2017-11-27T17:19:49.973Z,5.00
2017-11-27T17:22:16.255Z,4.90
2017-11-27T17:24:43.494Z,4.90
2017-11-27T17:27:09.884Z,4.90
2017-11-27T17:29:36.965Z,4.90
2017-11-27T17:32:03.323Z,4.90
2017-11-27T17:34:30.368Z,4.90
2017-11-27T17:36:56.801Z,4.90
2017-11-27T17:39:23.331Z,4.90
2017-11-27T17:41:49.723Z,4.90
2017-11-27T17:44:16.070Z,4.90
2017-11-27T17:46:42.469Z,4.90
2017-11-27T17:49:09.552Z,4.90
2017-11-27T17:51:35.925Z,4.90
2017-11-27T17:54:02.310Z,4.90
2017-11-27T17:56:29.428Z,5.00
2017-11-27T17:58:55.767Z,5.00
2017-11-27T18:01:22.159Z,5.00
2017-11-27T18:03:48.486Z,5.10
2017-11-27T18:06:14.864Z,5.00
2017-11-27T18:08:42.063Z,5.10
2017-11-27T18:11:08.389Z,5.10
2017-11-27T18:13:35.539Z,5.20
2017-11-27T18:16:01.912Z,5.10
2017-11-27T18:18:28.242Z,5.20
2017-11-27T18:20:55.362Z,5.20
2017-11-27T18:23:21.702Z,5.20
2017-11-27T18:25:48.041Z,5.20
2017-11-27T18:28:14.413Z,5.30
2017-11-27T18:30:40.784Z,5.30
2017-11-27T18:33:07.891Z,5.30
2017-11-27T18:35:34.352Z,5.30
2017-11-27T18:38:00.687Z,5.30
2017-11-27T18:40:27.020Z,5.40
2017-11-27T18:42:53.305Z,5.40
2017-11-27T18:45:19.728Z,5.50
2017-11-27T18:47:46.032Z,5.40
2017-11-27T18:50:12.380Z,5.50
2017-11-27T18:52:38.658Z,5.50
2017-11-27T18:55:05.056Z,5.50
2017-11-27T18:57:31.400Z,5.50
2017-11-27T18:59:57.815Z,5.60
2017-11-27T19:02:24.128Z,5.60
2017-11-27T19:04:50.494Z,5.60
2017-11-27T19:07:16.827Z,5.60
2017-11-27T19:09:43.354Z,5.60
2017-11-27T19:12:09.668Z,5.70
2017-11-27T19:14:36.032Z,5.70
2017-11-27T19:17:02.372Z,5.70
2017-11-27T19:19:28.741Z,5.80
2017-11-27T19:21:55.085Z,5.80
2017-11-27T19:24:21.428Z,5.90
2017-11-27T19:26:47.778Z,5.90
2017-11-27T19:29:14.128Z,5.90
2017-11-27T19:31:40.459Z,5.90
2017-11-27T19:34:06.810Z,5.90
2017-11-27T19:36:33.187Z,5.90
2017-11-27T19:38:59.521Z,5.90
2017-11-27T19:41:25.806Z,6.00
2017-11-27T19:43:52.852Z,5.90
2017-11-27T19:46:19.206Z,5.90
2017-11-27T19:48:46.268Z,5.80
2017-11-27T19:51:13.325Z,5.70
2017-11-27T19:53:39.663Z,5.70
2017-11-27T19:56:05.916Z,5.70
2017-11-27T19:58:32.936Z,5.70
2017-11-27T20:00:59.191Z,5.70
2017-11-27T20:03:25.580Z,5.70
2017-11-27T20:05:51.882Z,5.70
2017-11-27T20:08:18.181Z,5.70
2017-11-27T20:10:44.457Z,5.70
2017-11-27T20:13:12.048Z,5.70
2017-11-27T20:15:38.375Z,5.70
2017-11-27T20:18:04.655Z,5.70
2017-11-27T20:20:31.636Z,5.60
2017-11-27T20:22:57.912Z,5.60
2017-11-27T20:25:24.221Z,5.60
2017-11-27T20:27:50.514Z,5.50
2017-11-27T20:30:17.295Z,5.50
2017-11-27T20:32:43.620Z,5.60
2017-11-27T20:35:10.078Z,5.60
2017-11-27T20:37:36.488Z,5.60
2017-11-27T20:40:02.762Z,5.60
2017-11-27T20:42:29.036Z,5.60
2017-11-27T20:44:56.062Z,5.60
2017-11-27T20:47:23.129Z,5.60
2017-11-27T20:49:50.191Z,5.60
2017-11-27T20:52:16.581Z,5.60
2017-11-27T20:54:42.898Z,5.70
2017-11-27T20:57:09.992Z,5.70
2017-11-27T20:59:36.256Z,5.60
2017-11-27T21:02:02.577Z,5.60
2017-11-27T21:04:28.907Z,5.60
2017-11-27T21:06:56.043Z,5.70
2017-11-27T21:09:22.348Z,5.70
2017-11-27T21:11:48.707Z,5.70
2017-11-27T21:14:15.066Z,5.70
2017-11-27T21:16:41.417Z,5.70
2017-11-27T21:19:07.820Z,5.60
2017-11-27T21:21:34.268Z,5.60
2017-11-27T21:24:00.599Z,5.60
2017-11-27T21:26:26.912Z,5.60
2017-11-27T21:28:53.237Z,5.50
2017-11-27T21:31:19.724Z,5.60
2017-11-27T21:33:46.068Z,5.60
2017-11-27T21:36:13.153Z,5.60
2017-11-27T21:38:39.489Z,5.60
2017-11-27T21:41:05.879Z,5.70
2017-11-27T21:43:32.182Z,5.70
2017-11-27T21:45:59.680Z,5.70
2017-11-27T21:48:25.999Z,5.70
2017-11-27T21:50:52.349Z,5.60
2017-11-27T21:53:18.761Z,5.70
2017-11-27T21:55:45.101Z,5.70
2017-11-27T21:58:12.180Z,5.80
2017-11-27T22:00:40.950Z,5.80
2017-11-27T22:03:08.626Z,5.80
2017-11-27T22:05:35.669Z,5.80
2017-11-27T22:08:02.048Z,5.80
2017-11-27T22:10:29.120Z,5.80
2017-11-27T22:12:56.171Z,5.80
2017-11-27T22:15:22.531Z,5.80
2017-11-27T22:17:48.912Z,5.80
2017-11-27T22:20:15.281Z,5.80
2017-11-27T22:22:41.640Z,5.70
2017-11-27T22:25:07.961Z,5.70
2017-11-27T22:27:34.277Z,5.70
2017-11-27T22:30:00.584Z,5.70
2017-11-27T22:32:27.696Z,5.70
2017-11-27T22:34:54.192Z,5.70
2017-11-27T22:37:20.557Z,5.60
2017-11-27T22:39:46.905Z,5.60
2017-11-27T22:42:13.321Z,5.70
2017-11-27T22:44:39.640Z,5.60
2017-11-27T22:47:06.006Z,5.60
2017-11-27T22:49:32.277Z,5.60
2017-11-27T22:51:58.634Z,5.60
2017-11-27T22:54:24.976Z,5.60
2017-11-27T22:56:51.300Z,5.60
2017-11-27T22:59:18.339Z,5.70
2017-11-27T23:01:44.695Z,5.70
2017-11-27T23:04:11.078Z,5.70
2017-11-27T23:06:37.448Z,5.70
2017-11-27T23:09:03.834Z,5.70
2017-11-27T23:11:30.238Z,5.80
2017-11-27T23:13:56.629Z,5.80
2017-11-27T23:16:23.010Z,5.80
2017-11-27T23:18:49.379Z,5.80
2017-11-27T23:21:15.810Z,5.80
2017-11-27T23:23:42.179Z,5.80
2017-11-27T23:26:08.542Z,5.80
2017-11-27T23:28:35.841Z,5.90
2017-11-27T23:31:03.065Z,5.90
2017-11-27T23:33:29.400Z,5.90
2017-11-27T23:35:56.128Z,5.90
2017-11-27T23:38:22.490Z,5.80
2017-11-27T23:40:48.837Z,5.80
2017-11-27T23:43:15.429Z,5.80
2017-11-27T23:45:41.862Z,5.80
2017-11-27T23:48:08.269Z,5.80
2017-11-27T23:50:35.532Z,5.70
2017-11-27T23:53:04.195Z,5.60
2017-11-27T23:55:31.384Z,5.50
2017-11-27T23:57:57.785Z,5.30
